Terminal Aerodrome Forecast
Issued by NWS

Home | Current Version | Previous Version | Text Only | Print | Product List | Glossary On
Versions: 1 2 3 4 5 6 7 8 9 10 11 12 13 14 15 16 17 18 19 20 21 22 23 24 25 26 27 28 29 30 31 32 33 34 35 36 37 38 39
000
FTUS44 KHGX 020523
TAFLBX
TAF
KLBX 020523Z 0206/0306 14005KT P6SM SKC
      TEMPO 0208/0210 BKN021
     FM021000 16004KT P6SM BKN019
     FM021500 14009KT P6SM VCSH SCT035 SCT250
      TEMPO 0215/0219 SHRA BKN035
     FM022300 15010KT P6SM SCT040 SCT250=

USA.gov is the U.S. government's official web portal to all federal, state and local government web resources and services.